sensor_id;sensor_type;location;lat;lon;timestamp;pressure;altitude;pressure_sealevel;temperature
67966;BMP280;54749;47.850;9.002;2022-11-21T00:00:56;95397.75;;;5.27
67966;BMP280;54749;47.850;9.002;2022-11-21T00:03:23;95384.41;;;5.27
67966;BMP280;54749;47.850;9.002;2022-11-21T00:05:50;95395.94;;;5.29
67966;BMP280;54749;47.850;9.002;2022-11-21T00:08:19;95399.16;;;5.31
67966;BMP280;54749;47.850;9.002;2022-11-21T00:10:46;95383.91;;;5.34
67966;BMP280;54749;47.850;9.002;2022-11-21T00:13:16;95388.84;;;5.36
67966;BMP280;54749;47.850;9.002;2022-11-21T00:15:43;95376.19;;;5.37
67966;BMP280;54749;47.850;9.002;2022-11-21T00:18:10;95388.03;;;5.35
67966;BMP280;54749;47.850;9.002;2022-11-21T00:20:39;95400.56;;;5.35
67966;BMP280;54749;47.850;9.002;2022-11-21T00:23:07;95364.59;;;5.36
67966;BMP280;54749;47.850;9.002;2022-11-21T00:25:34;95369.41;;;5.39
67966;BMP280;54749;47.850;9.002;2022-11-21T00:28:01;95370.41;;;5.37
67966;BMP280;54749;47.850;9.002;2022-11-21T00:30:28;95390.47;;;5.37
67966;BMP280;54749;47.850;9.002;2022-11-21T00:32:57;95380.13;;;5.41
67966;BMP280;54749;47.850;9.002;2022-11-21T00:35:24;95394.44;;;5.39
67966;BMP280;54749;47.850;9.002;2022-11-21T00:37:51;95392.75;;;5.40
67966;BMP280;54749;47.850;9.002;2022-11-21T00:40:18;95394.44;;;5.39
67966;BMP280;54749;47.850;9.002;2022-11-21T00:42:45;95380.00;;;5.30
67966;BMP280;54749;47.850;9.002;2022-11-21T00:45:12;95392.03;;;5.25
67966;BMP280;54749;47.850;9.002;2022-11-21T00:47:38;95372.78;;;5.26
67966;BMP280;54749;47.850;9.002;2022-11-21T00:50:06;95377.19;;;5.23
67966;BMP280;54749;47.850;9.002;2022-11-21T00:52:32;95370.97;;;5.16
67966;BMP280;54749;47.850;9.002;2022-11-21T00:54:59;95380.09;;;5.17
67966;BMP280;54749;47.850;9.002;2022-11-21T00:57:26;95364.16;;;5.18
67966;BMP280;54749;47.850;9.002;2022-11-21T00:59:53;95353.44;;;5.16
67966;BMP280;54749;47.850;9.002;2022-11-21T01:02:20;95360.13;;;5.15
67966;BMP280;54749;47.850;9.002;2022-11-21T01:04:47;95355.03;;;5.17
67966;BMP280;54749;47.850;9.002;2022-11-21T01:07:13;95344.34;;;5.15
67966;BMP280;54749;47.850;9.002;2022-11-21T01:09:41;95359.53;;;5.12
67966;BMP280;54749;47.850;9.002;2022-11-21T01:12:07;95350.34;;;5.12
67966;BMP280;54749;47.850;9.002;2022-11-21T01:14:34;95335.09;;;5.15
67966;BMP280;54749;47.850;9.002;2022-11-21T01:17:01;95332.72;;;5.14
67966;BMP280;54749;47.850;9.002;2022-11-21T01:19:28;95334.31;;;5.15
67966;BMP280;54749;47.850;9.002;2022-11-21T01:21:55;95319.31;;;5.15
67966;BMP280;54749;47.850;9.002;2022-11-21T01:24:22;95317.78;;;5.12
67966;BMP280;54749;47.850;9.002;2022-11-21T01:26:48;95316.97;;;5.12
67966;BMP280;54749;47.850;9.002;2022-11-21T01:29:16;95312.84;;;5.11
67966;BMP280;54749;47.850;9.002;2022-11-21T01:31:44;95308.78;;;5.10
67966;BMP280;54749;47.850;9.002;2022-11-21T01:34:11;95308.66;;;5.11
67966;BMP280;54749;47.850;9.002;2022-11-21T01:36:37;95295.97;;;5.14
67966;BMP280;54749;47.850;9.002;2022-11-21T01:39:05;95294.44;;;5.12
67966;BMP280;54749;47.850;9.002;2022-11-21T01:41:35;95284.63;;;5.09
67966;BMP280;54749;47.850;9.002;2022-11-21T01:44:19;95275.41;;;5.09
67966;BMP280;54749;47.850;9.002;2022-11-21T01:46:47;95257.59;;;5.14
67966;BMP280;54749;47.850;9.002;2022-11-21T01:52:00;95252.97;;;5.20
67966;BMP280;54749;47.850;9.002;2022-11-21T01:54:44;95253.78;;;5.21
67966;BMP280;54749;47.850;9.002;2022-11-21T01:57:24;95233.66;;;5.22
67966;BMP280;54749;47.850;9.002;2022-11-21T02:00:32;95237.63;;;5.24
67966;BMP280;54749;47.850;9.002;2022-11-21T02:03:03;95230.13;;;5.24
67966;BMP280;54749;47.850;9.002;2022-11-21T02:05:34;95234.25;;;5.25
67966;BMP280;54749;47.850;9.002;2022-11-21T02:08:05;95225.13;;;5.24
67966;BMP280;54749;47.850;9.002;2022-11-21T02:10:43;95226.50;;;5.28
67966;BMP280;54749;47.850;9.002;2022-11-21T02:13:13;95228.84;;;5.31
67966;BMP280;54749;47.850;9.002;2022-11-21T02:15:40;95240.56;;;5.31
67966;BMP280;54749;47.850;9.002;2022-11-21T02:18:08;95234.75;;;5.30
67966;BMP280;54749;47.850;9.002;2022-11-21T02:20:36;95220.59;;;5.29
67966;BMP280;54749;47.850;9.002;2022-11-21T02:23:24;95220.50;;;5.31
67966;BMP280;54749;47.850;9.002;2022-11-21T02:25:54;95203.88;;;5.30
67966;BMP280;54749;47.850;9.002;2022-11-21T02:28:21;95214.00;;;5.28
67966;BMP280;54749;47.850;9.002;2022-11-21T02:30:50;95196.66;;;5.25
67966;BMP280;54749;47.850;9.002;2022-11-21T02:33:16;95206.00;;;5.24
67966;BMP280;54749;47.850;9.002;2022-11-21T02:35:44;95208.31;;;5.26
67966;BMP280;54749;47.850;9.002;2022-11-21T02:38:16;95211.78;;;5.24
67966;BMP280;54749;47.850;9.002;2022-11-21T02:40:51;95190.84;;;5.25
67966;BMP280;54749;47.850;9.002;2022-11-21T02:43:23;95214.91;;;5.27
67966;BMP280;54749;47.850;9.002;2022-11-21T02:45:51;95211.47;;;5.28
67966;BMP280;54749;47.850;9.002;2022-11-21T02:48:18;95198.78;;;5.31
67966;BMP280;54749;47.850;9.002;2022-11-21T02:50:45;95203.66;;;5.33
67966;BMP280;54749;47.850;9.002;2022-11-21T02:53:15;95193.56;;;5.34
67966;BMP280;54749;47.850;9.002;2022-11-21T02:55:42;95196.66;;;5.38
67966;BMP280;54749;47.850;9.002;2022-11-21T02:58:10;95195.84;;;5.37
67966;BMP280;54749;47.850;9.002;2022-11-21T03:00:38;95190.97;;;5.36
67966;BMP280;54749;47.850;9.002;2022-11-21T03:03:05;95196.28;;;5.31
67966;BMP280;54749;47.850;9.002;2022-11-21T03:05:32;95192.25;;;5.29
67966;BMP280;54749;47.850;9.002;2022-11-21T03:07:59;95190.69;;;5.28
67966;BMP280;54749;47.850;9.002;2022-11-21T03:10:26;95193.06;;;5.29
67966;BMP280;54749;47.850;9.002;2022-11-21T03:12:53;95179.03;;;5.27
67966;BMP280;54749;47.850;9.002;2022-11-21T03:15:29;95183.25;;;5.26
67966;BMP280;54749;47.850;9.002;2022-11-21T03:17:57;95180.75;;;5.26
67966;BMP280;54749;47.850;9.002;2022-11-21T03:20:24;95179.13;;;5.25
67966;BMP280;54749;47.850;9.002;2022-11-21T03:22:51;95167.44;;;5.26
67966;BMP280;54749;47.850;9.002;2022-11-21T03:25:19;95176.25;;;5.19
67966;BMP280;54749;47.850;9.002;2022-11-21T03:27:50;95163.03;;;5.17
67966;BMP280;54749;47.850;9.002;2022-11-21T03:30:22;95163.84;;;5.18
67966;BMP280;54749;47.850;9.002;2022-11-21T03:32:49;95165.44;;;5.19
67966;BMP280;54749;47.850;9.002;2022-11-21T03:35:16;95158.63;;;5.21
67966;BMP280;54749;47.850;9.002;2022-11-21T03:37:43;95160.22;;;5.22
67966;BMP280;54749;47.850;9.002;2022-11-21T03:40:11;95160.22;;;5.22
67966;BMP280;54749;47.850;9.002;2022-11-21T03:42:38;95162.63;;;5.23
67966;BMP280;54749;47.850;9.002;2022-11-21T03:45:05;95125.06;;;5.23
67966;BMP280;54749;47.850;9.002;2022-11-21T03:47:32;95136.47;;;5.27
67966;BMP280;54749;47.850;9.002;2022-11-21T03:49:59;95135.56;;;5.28
67966;BMP280;54749;47.850;9.002;2022-11-21T03:52:26;95128.97;;;5.27
67966;BMP280;54749;47.850;9.002;2022-11-21T03:54:53;95120.63;;;5.26
67966;BMP280;54749;47.850;9.002;2022-11-21T03:57:20;95139.78;;;5.27
67966;BMP280;54749;47.850;9.002;2022-11-21T03:59:47;95125.66;;;5.26
67966;BMP280;54749;47.850;9.002;2022-11-21T04:02:13;95134.78;;;5.27
67966;BMP280;54749;47.850;9.002;2022-11-21T04:04:40;95128.16;;;5.26
67966;BMP280;54749;47.850;9.002;2022-11-21T04:07:07;95143.19;;;5.26
67966;BMP280;54749;47.850;9.002;2022-11-21T04:09:34;95110.63;;;5.26
67966;BMP280;54749;47.850;9.002;2022-11-21T04:12:01;95115.72;;;5.25
67966;BMP280;54749;47.850;9.002;2022-11-21T04:14:33;95112.41;;;5.24
67966;BMP280;54749;47.850;9.002;2022-11-21T04:17:00;95113.22;;;5.25
67966;BMP280;54749;47.850;9.002;2022-11-21T04:19:27;95109.03;;;5.25
67966;BMP280;54749;47.850;9.002;2022-11-21T04:21:54;95120.56;;;5.28
67966;BMP280;54749;47.850;9.002;2022-11-21T04:24:20;95103.59;;;5.31
67966;BMP280;54749;47.850;9.002;2022-11-21T04:26:47;95107.91;;;5.29
67966;BMP280;54749;47.850;9.002;2022-11-21T04:29:14;95103.47;;;5.33
67966;BMP280;54749;47.850;9.002;2022-11-21T04:31:41;95116.81;;;5.33
67966;BMP280;54749;47.850;9.002;2022-11-21T04:34:08;95112.50;;;5.35
67966;BMP280;54749;47.850;9.002;2022-11-21T04:36:34;95128.34;;;5.36
67966;BMP280;54749;47.850;9.002;2022-11-21T04:39:02;95116.47;;;5.38
67966;BMP280;54749;47.850;9.002;2022-11-21T04:41:29;95122.13;;;5.41
67966;BMP280;54749;47.850;9.002;2022-11-21T04:43:56;95134.50;;;5.42
67966;BMP280;54749;47.850;9.002;2022-11-21T04:46:22;95123.59;;;5.43
67966;BMP280;54749;47.850;9.002;2022-11-21T04:48:49;95135.31;;;5.43
67966;BMP280;54749;47.850;9.002;2022-11-21T04:51:16;95132.72;;;5.44
67966;BMP280;54749;47.850;9.002;2022-11-21T04:53:43;95143.31;;;5.48
67966;BMP280;54749;47.850;9.002;2022-11-21T04:56:10;95130.69;;;5.49
67966;BMP280;54749;47.850;9.002;2022-11-21T04:58:37;95125.47;;;5.52
67966;BMP280;54749;47.850;9.002;2022-11-21T05:01:07;95142.91;;;5.54
67966;BMP280;54749;47.850;9.002;2022-11-21T05:03:35;95143.69;;;5.54
67966;BMP280;54749;47.850;9.002;2022-11-21T05:06:02;95130.47;;;5.52
67966;BMP280;54749;47.850;9.002;2022-11-21T05:08:29;95119.56;;;5.53
67966;BMP280;54749;47.850;9.002;2022-11-21T05:10:56;95151.31;;;5.53
67966;BMP280;54749;47.850;9.002;2022-11-21T05:13:41;95157.72;;;5.57
67966;BMP280;54749;47.850;9.002;2022-11-21T05:16:08;95143.38;;;5.58
67966;BMP280;54749;47.850;9.002;2022-11-21T05:18:35;95145.88;;;5.58
67966;BMP280;54749;47.850;9.002;2022-11-21T05:21:02;95168.34;;;5.60
67966;BMP280;54749;47.850;9.002;2022-11-21T05:23:29;95144.28;;;5.58
67966;BMP280;54749;47.850;9.002;2022-11-21T05:25:56;95154.31;;;5.58
67966;BMP280;54749;47.850;9.002;2022-11-21T05:28:23;95148.59;;;5.56
67966;BMP280;54749;47.850;9.002;2022-11-21T05:30:50;95133.28;;;5.48
67966;BMP280;54749;47.850;9.002;2022-11-21T05:33:17;95145.91;;;5.46
67966;BMP280;54749;47.850;9.002;2022-11-21T05:35:43;95151.06;;;5.45
67966;BMP280;54749;47.850;9.002;2022-11-21T05:38:10;95157.19;;;5.41
67966;BMP280;54749;47.850;9.002;2022-11-21T05:40:38;95156.19;;;5.31
67966;BMP280;54749;47.850;9.002;2022-11-21T05:43:05;95159.41;;;5.21
67966;BMP280;54749;47.850;9.002;2022-11-21T05:45:50;95157.16;;;5.06
67966;BMP280;54749;47.850;9.002;2022-11-21T05:48:17;95164.06;;;4.90
67966;BMP280;54749;47.850;9.002;2022-11-21T05:50:48;95148.16;;;4.79
67966;BMP280;54749;47.850;9.002;2022-11-21T05:53:15;95167.97;;;4.70
67966;BMP280;54749;47.850;9.002;2022-11-21T05:55:42;95162.69;;;4.62
67966;BMP280;54749;47.850;9.002;2022-11-21T05:58:09;95178.28;;;4.54
67966;BMP280;54749;47.850;9.002;2022-11-21T06:00:36;95179.47;;;4.48
67966;BMP280;54749;47.850;9.002;2022-11-21T06:03:04;95172.06;;;4.47
67966;BMP280;54749;47.850;9.002;2022-11-21T06:05:50;95178.47;;;4.51
67966;BMP280;54749;47.850;9.002;2022-11-21T06:08:17;95168.88;;;4.57
67966;BMP280;54749;47.850;9.002;2022-11-21T06:10:44;95179.38;;;4.62
67966;BMP280;54749;47.850;9.002;2022-11-21T06:13:11;95170.69;;;4.67
67966;BMP280;54749;47.850;9.002;2022-11-21T06:15:58;95167.97;;;4.70
67966;BMP280;54749;47.850;9.002;2022-11-21T06:18:26;95167.78;;;4.73
67966;BMP280;54749;47.850;9.002;2022-11-21T06:21:00;95163.47;;;4.75
67966;BMP280;54749;47.850;9.002;2022-11-21T06:23:27;95149.16;;;4.77
67966;BMP280;54749;47.850;9.002;2022-11-21T06:25:57;95145.25;;;4.73
67966;BMP280;54749;47.850;9.002;2022-11-21T06:28:26;95147.25;;;4.68
67966;BMP280;54749;47.850;9.002;2022-11-21T06:30:53;95157.56;;;4.64
67966;BMP280;54749;47.850;9.002;2022-11-21T06:33:20;95147.66;;;4.62
67966;BMP280;54749;47.850;9.002;2022-11-21T06:35:46;95145.25;;;4.61
67966;BMP280;54749;47.850;9.002;2022-11-21T06:38:13;95157.84;;;4.59
67966;BMP280;54749;47.850;9.002;2022-11-21T06:40:44;95149.84;;;4.54
67966;BMP280;54749;47.850;9.002;2022-11-21T06:43:11;95140.94;;;4.51
67966;BMP280;54749;47.850;9.002;2022-11-21T06:45:37;95167.78;;;4.49
67966;BMP280;54749;47.850;9.002;2022-11-21T06:48:05;95156.38;;;4.45
67966;BMP280;54749;47.850;9.002;2022-11-21T06:50:31;95179.06;;;4.42
67966;BMP280;54749;47.850;9.002;2022-11-21T06:52:59;95167.63;;;4.38
67966;BMP280;54749;47.850;9.002;2022-11-21T06:55:26;95171.06;;;4.37
67966;BMP280;54749;47.850;9.002;2022-11-21T06:57:58;95166.84;;;4.37
67966;BMP280;54749;47.850;9.002;2022-11-21T07:00:25;95169.25;;;4.39
67966;BMP280;54749;47.850;9.002;2022-11-21T07:02:58;95182.47;;;4.41
67966;BMP280;54749;47.850;9.002;2022-11-21T07:05:29;95172.25;;;4.44
67966;BMP280;54749;47.850;9.002;2022-11-21T07:07:58;95178.66;;;4.48
67966;BMP280;54749;47.850;9.002;2022-11-21T07:10:26;95176.75;;;4.51
67966;BMP280;54749;47.850;9.002;2022-11-21T07:12:58;95172.06;;;4.59
67966;BMP280;54749;47.850;9.002;2022-11-21T07:15:44;95166.66;;;4.65
67966;BMP280;54749;47.850;9.002;2022-11-21T07:18:12;95170.47;;;4.70
67966;BMP280;54749;47.850;9.002;2022-11-21T07:20:39;95155.25;;;4.73
67966;BMP280;54749;47.850;9.002;2022-11-21T07:23:07;95156.75;;;4.88
67966;BMP280;54749;47.850;9.002;2022-11-21T07:25:34;95162.66;;;4.99
67966;BMP280;54749;47.850;9.002;2022-11-21T07:28:03;95167.63;;;5.11
67966;BMP280;54749;47.850;9.002;2022-11-21T07:30:29;95175.03;;;5.24
67966;BMP280;54749;47.850;9.002;2022-11-21T07:32:57;95180.41;;;5.43
67966;BMP280;54749;47.850;9.002;2022-11-21T07:35:25;95182.19;;;5.53
67966;BMP280;54749;47.850;9.002;2022-11-21T07:37:52;95167.84;;;5.55
67966;BMP280;54749;47.850;9.002;2022-11-21T07:40:20;95165.53;;;5.64
67966;BMP280;54749;47.850;9.002;2022-11-21T07:42:47;95159.66;;;5.88
67966;BMP280;54749;47.850;9.002;2022-11-21T07:45:14;95148.94;;;6.20
67966;BMP280;54749;47.850;9.002;2022-11-21T07:47:42;95152.19;;;6.43
67966;BMP280;54749;47.850;9.002;2022-11-21T07:50:10;95149.16;;;6.72
67966;BMP280;54749;47.850;9.002;2022-11-21T07:52:37;95157.66;;;6.92
67966;BMP280;54749;47.850;9.002;2022-11-21T07:55:05;95144.53;;;6.99
67966;BMP280;54749;47.850;9.002;2022-11-21T07:57:32;95150.47;;;6.99
67966;BMP280;54749;47.850;9.002;2022-11-21T07:59:58;95149.19;;;6.93
67966;BMP280;54749;47.850;9.002;2022-11-21T08:02:27;95148.41;;;6.82
67966;BMP280;54749;47.850;9.002;2022-11-21T08:04:53;95158.31;;;6.73
67966;BMP280;54749;47.850;9.002;2022-11-21T08:07:22;95144.72;;;6.64
67966;BMP280;54749;47.850;9.002;2022-11-21T08:09:49;95154.75;;;6.64
67966;BMP280;54749;47.850;9.002;2022-11-21T08:12:17;95161.38;;;6.65
67966;BMP280;54749;47.850;9.002;2022-11-21T08:14:44;95146.09;;;6.58
67966;BMP280;54749;47.850;9.002;2022-11-21T08:17:11;95152.44;;;6.51
67966;BMP280;54749;47.850;9.002;2022-11-21T08:19:39;95150.22;;;6.80
67966;BMP280;54749;47.850;9.002;2022-11-21T08:22:06;95152.06;;;7.21
67966;BMP280;54749;47.850;9.002;2022-11-21T08:24:33;95144.84;;;7.38
67966;BMP280;54749;47.850;9.002;2022-11-21T08:26:59;95147.69;;;7.55
67966;BMP280;54749;47.850;9.002;2022-11-21T08:29:26;95137.44;;;7.99
67966;BMP280;54749;47.850;9.002;2022-11-21T08:31:54;95119.63;;;8.22
67966;BMP280;54749;47.850;9.002;2022-11-21T08:34:20;95095.66;;;8.27
67966;BMP280;54749;47.850;9.002;2022-11-21T08:36:48;95122.25;;;8.21
67966;BMP280;54749;47.850;9.002;2022-11-21T08:39:14;95127.47;;;7.98
67966;BMP280;54749;47.850;9.002;2022-11-21T08:41:41;95118.53;;;7.94
67966;BMP280;54749;47.850;9.002;2022-11-21T08:44:27;95103.25;;;7.86
67966;BMP280;54749;47.850;9.002;2022-11-21T08:46:55;95113.81;;;8.11
67966;BMP280;54749;47.850;9.002;2022-11-21T08:49:23;95094.38;;;8.53
67966;BMP280;54749;47.850;9.002;2022-11-21T08:51:50;95108.47;;;9.52
67966;BMP280;54749;47.850;9.002;2022-11-21T08:54:18;95086.63;;;9.80
67966;BMP280;54749;47.850;9.002;2022-11-21T08:56:45;95080.84;;;9.50
67966;BMP280;54749;47.850;9.002;2022-11-21T08:59:12;95084.19;;;9.12
67966;BMP280;54749;47.850;9.002;2022-11-21T09:01:39;95098.22;;;9.06
67966;BMP280;54749;47.850;9.002;2022-11-21T09:04:06;95096.94;;;9.20
67966;BMP280;54749;47.850;9.002;2022-11-21T09:06:34;95081.91;;;9.57
67966;BMP280;54749;47.850;9.002;2022-11-21T09:09:04;95081.00;;;9.67
67966;BMP280;54749;47.850;9.002;2022-11-21T09:11:31;95090.38;;;9.38
67966;BMP280;54749;47.850;9.002;2022-11-21T09:13:58;95091.66;;;9.23
67966;BMP280;54749;47.850;9.002;2022-11-21T09:16:44;95096.28;;;9.18
67966;BMP280;54749;47.850;9.002;2022-11-21T09:19:29;95097.66;;;9.41
67966;BMP280;54749;47.850;9.002;2022-11-21T09:21:56;95088.03;;;9.55
67966;BMP280;54749;47.850;9.002;2022-11-21T09:24:23;95089.06;;;9.43
67966;BMP280;54749;47.850;9.002;2022-11-21T09:26:50;95097.88;;;9.19
67966;BMP280;54749;47.850;9.002;2022-11-21T09:29:17;95096.63;;;9.05
67966;BMP280;54749;47.850;9.002;2022-11-21T09:31:44;95100.31;;;9.01
67966;BMP280;54749;47.850;9.002;2022-11-21T09:34:11;95089.97;;;8.94
67966;BMP280;54749;47.850;9.002;2022-11-21T09:36:38;95100.69;;;8.96
67966;BMP280;54749;47.850;9.002;2022-11-21T09:39:05;95089.56;;;8.99
67966;BMP280;54749;47.850;9.002;2022-11-21T09:41:57;95107.78;;;9.11
67966;BMP280;54749;47.850;9.002;2022-11-21T09:47:28;95078.50;;;10.60
67966;BMP280;54749;47.850;9.002;2022-11-21T09:50:05;95065.03;;;11.83
67966;BMP280;54749;47.850;9.002;2022-11-21T09:52:55;95037.97;;;14.05
67966;BMP280;54749;47.850;9.002;2022-11-21T09:55:43;94977.09;;;16.72
67966;BMP280;54749;47.850;9.002;2022-11-21T09:58:38;94967.22;;;19.09
67966;BMP280;54749;47.850;9.002;2022-11-21T10:01:14;94954.34;;;18.90
67966;BMP280;54749;47.850;9.002;2022-11-21T10:03:45;94975.84;;;18.69
67966;BMP280;54749;47.850;9.002;2022-11-21T10:06:20;94957.50;;;19.77
67966;BMP280;54749;47.850;9.002;2022-11-21T10:09:00;94949.75;;;20.73
67966;BMP280;54749;47.850;9.002;2022-11-21T10:14:34;94901.03;;;22.26
67966;BMP280;54749;47.850;9.002;2022-11-21T10:19:59;94913.84;;;21.29
67966;BMP280;54749;47.850;9.002;2022-11-21T10:22:41;94892.06;;;22.11
67966;BMP280;54749;47.850;9.002;2022-11-21T10:25:14;94877.03;;;22.97
67966;BMP280;54749;47.850;9.002;2022-11-21T10:30:41;94900.72;;;23.86
67966;BMP280;54749;47.850;9.002;2022-11-21T10:33:17;94893.81;;;23.69
67966;BMP280;54749;47.850;9.002;2022-11-21T10:35:50;94904.44;;;23.61
67966;BMP280;54749;47.850;9.002;2022-11-21T10:38:20;94920.06;;;22.96
67966;BMP280;54749;47.850;9.002;2022-11-21T10:43:38;94911.41;;;21.89
67966;BMP280;54749;47.850;9.002;2022-11-21T10:46:25;94926.50;;;21.73
67966;BMP280;54749;47.850;9.002;2022-11-21T10:48:56;94901.81;;;22.02
67966;BMP280;54749;47.850;9.002;2022-11-21T10:51:44;94907.78;;;20.98
67966;BMP280;54749;47.850;9.002;2022-11-21T10:54:13;94909.66;;;20.60
67966;BMP280;54749;47.850;9.002;2022-11-21T10:57:10;94908.97;;;20.96
67966;BMP280;54749;47.850;9.002;2022-11-21T10:59:38;94897.09;;;21.07
67966;BMP280;54749;47.850;9.002;2022-11-21T11:04:39;94917.28;;;19.78
67966;BMP280;54749;47.850;9.002;2022-11-21T11:09:46;94932.22;;;16.35
67966;BMP280;54749;47.850;9.002;2022-11-21T11:14:51;94941.88;;;14.16
67966;BMP280;54749;47.850;9.002;2022-11-21T11:17:27;94945.66;;;13.73
67966;BMP280;54749;47.850;9.002;2022-11-21T11:22:56;94929.88;;;13.15
67966;BMP280;54749;47.850;9.002;2022-11-21T11:25:23;94932.13;;;12.86
67966;BMP280;54749;47.850;9.002;2022-11-21T11:27:50;94911.53;;;12.56
67966;BMP280;54749;47.850;9.002;2022-11-21T11:30:18;94922.59;;;12.23
67966;BMP280;54749;47.850;9.002;2022-11-21T11:32:45;94900.13;;;12.20
67966;BMP280;54749;47.850;9.002;2022-11-21T11:35:21;94898.03;;;12.15
67966;BMP280;54749;47.850;9.002;2022-11-21T11:37:58;94902.09;;;11.84
67966;BMP280;54749;47.850;9.002;2022-11-21T11:40:34;94895.28;;;11.84
67966;BMP280;54749;47.850;9.002;2022-11-21T11:48:58;94880.28;;;11.90
67966;BMP280;54749;47.850;9.002;2022-11-21T11:51:52;94852.56;;;12.06
67966;BMP280;54749;47.850;9.002;2022-11-21T11:54:28;94850.06;;;12.14
67966;BMP280;54749;47.850;9.002;2022-11-21T11:56:56;94839.34;;;12.20
67966;BMP280;54749;47.850;9.002;2022-11-21T12:03:07;94819.19;;;12.10
67966;BMP280;54749;47.850;9.002;2022-11-21T12:05:45;94810.47;;;12.13
67966;BMP280;54749;47.850;9.002;2022-11-21T12:08:24;94812.38;;;12.11
67966;BMP280;54749;47.850;9.002;2022-11-21T12:11:19;94787.31;;;12.00
67966;BMP280;54749;47.850;9.002;2022-11-21T12:14:21;94792.09;;;12.03
67966;BMP280;54749;47.850;9.002;2022-11-21T12:17:16;94796.16;;;11.64
67966;BMP280;54749;47.850;9.002;2022-11-21T12:19:46;94798.84;;;11.45
67966;BMP280;54749;47.850;9.002;2022-11-21T12:22:15;94791.94;;;11.30
67966;BMP280;54749;47.850;9.002;2022-11-21T12:24:42;94772.13;;;11.26
67966;BMP280;54749;47.850;9.002;2022-11-21T12:27:30;94782.78;;;11.12
67966;BMP280;54749;47.850;9.002;2022-11-21T12:30:22;94760.69;;;10.97
67966;BMP280;54749;47.850;9.002;2022-11-21T12:33:04;94772.91;;;10.85
67966;BMP280;54749;47.850;9.002;2022-11-21T12:46:06;94730.81;;;10.42
67966;BMP280;54749;47.850;9.002;2022-11-21T12:48:46;94729.16;;;10.33
67966;BMP280;54749;47.850;9.002;2022-11-21T12:51:48;94721.75;;;10.22
67966;BMP280;54749;47.850;9.002;2022-11-21T12:57:33;94714.09;;;10.15
67966;BMP280;54749;47.850;9.002;2022-11-21T13:00:50;94709.91;;;10.06
67966;BMP280;54749;47.850;9.002;2022-11-21T13:05:45;94698.59;;;10.10
67966;BMP280;54749;47.850;9.002;2022-11-21T13:08:22;94690.09;;;10.11
67966;BMP280;54749;47.850;9.002;2022-11-21T13:10:52;94687.19;;;10.06
67966;BMP280;54749;47.850;9.002;2022-11-21T13:13:42;94686.19;;;9.99
67966;BMP280;54749;47.850;9.002;2022-11-21T13:16:17;94680.19;;;10.00
67966;BMP280;54749;47.850;9.002;2022-11-21T13:21:46;94673.09;;;10.13
67966;BMP280;54749;47.850;9.002;2022-11-21T13:32:36;94648.25;;;9.91
67966;BMP280;54749;47.850;9.002;2022-11-21T13:45:52;94630.97;;;10.30
67966;BMP280;54749;47.850;9.002;2022-11-21T13:48:32;94628.88;;;10.26
67966;BMP280;54749;47.850;9.002;2022-11-21T13:51:11;94619.34;;;10.20
67966;BMP280;54749;47.850;9.002;2022-11-21T13:56:35;94614.94;;;10.05
67966;BMP280;54749;47.850;9.002;2022-11-21T13:59:19;94605.50;;;9.90
67966;BMP280;54749;47.850;9.002;2022-11-21T14:07:34;94586.31;;;9.53
67966;BMP280;54749;47.850;9.002;2022-11-21T14:10:17;94589.69;;;9.44
67966;BMP280;54749;47.850;9.002;2022-11-21T14:12:47;94593.34;;;9.33
67966;BMP280;54749;47.850;9.002;2022-11-21T14:15:20;94578.94;;;9.26
67966;BMP280;54749;47.850;9.002;2022-11-21T14:17:50;94568.66;;;9.10
67966;BMP280;54749;47.850;9.002;2022-11-21T14:20:23;94559.41;;;9.01
67966;BMP280;54749;47.850;9.002;2022-11-21T14:22:57;94562.25;;;8.89
67966;BMP280;54749;47.850;9.002;2022-11-21T14:28:13;94546.41;;;8.70
67966;BMP280;54749;47.850;9.002;2022-11-21T14:30:42;94542.19;;;8.61
67966;BMP280;54749;47.850;9.002;2022-11-21T14:33:20;94545.19;;;8.48
67966;BMP280;54749;47.850;9.002;2022-11-21T14:35:51;94529.31;;;8.38
67966;BMP280;54749;47.850;9.002;2022-11-21T14:38:19;94530.63;;;8.33
67966;BMP280;54749;47.850;9.002;2022-11-21T14:40:47;94524.03;;;8.22
67966;BMP280;54749;47.850;9.002;2022-11-21T14:43:27;94511.59;;;8.12
67966;BMP280;54749;47.850;9.002;2022-11-21T14:45:54;94508.59;;;7.99
67966;BMP280;54749;47.850;9.002;2022-11-21T14:48:28;94516.38;;;7.87
67966;BMP280;54749;47.850;9.002;2022-11-21T14:50:57;94513.59;;;7.81
67966;BMP280;54749;47.850;9.002;2022-11-21T14:53:25;94499.97;;;7.74
67966;BMP280;54749;47.850;9.002;2022-11-21T14:55:52;94507.53;;;7.65
67966;BMP280;54749;47.850;9.002;2022-11-21T14:58:26;94492.16;;;7.58
67966;BMP280;54749;47.850;9.002;2022-11-21T15:01:01;94484.91;;;7.46
67966;BMP280;54749;47.850;9.002;2022-11-21T15:03:28;94482.91;;;7.40
67966;BMP280;54749;47.850;9.002;2022-11-21T15:06:01;94469.56;;;7.31
67966;BMP280;54749;47.850;9.002;2022-11-21T15:08:49;94460.31;;;7.22
67966;BMP280;54749;47.850;9.002;2022-11-21T15:11:51;94456.31;;;7.10
67966;BMP280;54749;47.850;9.002;2022-11-21T15:17:06;94459.22;;;6.97
67966;BMP280;54749;47.850;9.002;2022-11-21T15:19:34;94448.38;;;6.87
67966;BMP280;54749;47.850;9.002;2022-11-21T15:22:02;94452.31;;;6.80
67966;BMP280;54749;47.850;9.002;2022-11-21T15:24:38;94438.13;;;6.61
67966;BMP280;54749;47.850;9.002;2022-11-21T15:32:57;94432.75;;;6.27
67966;BMP280;54749;47.850;9.002;2022-11-21T15:38:15;94438.38;;;6.19
67966;BMP280;54749;47.850;9.002;2022-11-21T15:48:46;94416.13;;;5.57
67966;BMP280;54749;47.850;9.002;2022-11-21T15:51:13;94410.81;;;5.50
67966;BMP280;54749;47.850;9.002;2022-11-21T15:53:41;94425.13;;;5.39
67966;BMP280;54749;47.850;9.002;2022-11-21T15:56:10;94401.16;;;5.26
67966;BMP280;54749;47.850;9.002;2022-11-21T15:58:38;94395.19;;;5.18
67966;BMP280;54749;47.850;9.002;2022-11-21T16:01:10;94387.72;;;5.07
67966;BMP280;54749;47.850;9.002;2022-11-21T16:03:38;94379.72;;;4.93
67966;BMP280;54749;47.850;9.002;2022-11-21T16:06:05;94374.38;;;4.87
67966;BMP280;54749;47.850;9.002;2022-11-21T16:08:32;94373.94;;;4.82
67966;BMP280;54749;47.850;9.002;2022-11-21T16:10:59;94361.94;;;4.76
67966;BMP280;54749;47.850;9.002;2022-11-21T16:13:26;94354.66;;;4.73
67966;BMP280;54749;47.850;9.002;2022-11-21T16:15:53;94356.97;;;4.65
67966;BMP280;54749;47.850;9.002;2022-11-21T16:18:20;94348.78;;;4.63
67966;BMP280;54749;47.850;9.002;2022-11-21T16:20:47;94331.69;;;4.68
67966;BMP280;54749;47.850;9.002;2022-11-21T16:23:13;94326.94;;;4.65
67966;BMP280;54749;47.850;9.002;2022-11-21T16:25:53;94316.63;;;4.59